createdAt,value
2022-12-26T00:00:53.117Z,1018.76
2022-12-26T00:06:00.291Z,1018.89
2022-12-26T00:11:07.453Z,1018.78
2022-12-26T00:16:14.744Z,1018.74
2022-12-26T00:21:21.898Z,1018.89
2022-12-26T00:26:29.066Z,1019.04
2022-12-26T00:31:36.387Z,1019.16
2022-12-26T00:36:43.680Z,1019.24
2022-12-26T00:41:50.999Z,1019.09
2022-12-26T00:46:58.294Z,1019.18
2022-12-26T00:52:05.444Z,1019.15
2022-12-26T00:57:12.637Z,1019.07
2022-12-26T01:02:19.921Z,1019.12
2022-12-26T01:07:27.031Z,1019.14
2022-12-26T01:12:34.282Z,1019.30
2022-12-26T01:17:41.537Z,1019.40
2022-12-26T01:22:48.754Z,1019.55
2022-12-26T01:27:55.950Z,1019.61
2022-12-26T01:33:03.244Z,1019.69
2022-12-26T01:38:10.445Z,1019.66
2022-12-26T01:43:17.579Z,1019.64
2022-12-26T01:48:24.812Z,1019.72
2022-12-26T01:53:32.098Z,1019.73
2022-12-26T01:58:39.304Z,1019.76
2022-12-26T02:03:46.477Z,1019.76
2022-12-26T02:08:53.705Z,1019.73
2022-12-26T02:14:00.891Z,1019.67
2022-12-26T02:19:08.095Z,1019.58
2022-12-26T02:24:15.449Z,1019.46
2022-12-26T02:29:22.683Z,1019.55
2022-12-26T02:34:29.929Z,1019.62
2022-12-26T02:39:45.138Z,1019.59
2022-12-26T02:44:44.329Z,1019.69
2022-12-26T02:49:51.552Z,1019.82
2022-12-26T02:54:58.761Z,1019.89
2022-12-26T03:00:05.973Z,1019.59
2022-12-26T03:05:13.201Z,1019.62
2022-12-26T03:10:20.501Z,1019.58
2022-12-26T03:15:27.680Z,1019.46
2022-12-26T03:20:34.944Z,1019.56
2022-12-26T03:25:42.276Z,1019.62
2022-12-26T03:30:49.611Z,1019.64
2022-12-26T03:35:56.758Z,1019.63
2022-12-26T03:41:03.953Z,1019.50
2022-12-26T03:46:11.225Z,1019.52
2022-12-26T03:51:18.389Z,1019.54
2022-12-26T03:56:25.611Z,1019.57
2022-12-26T04:01:32.867Z,1019.70
2022-12-26T04:06:40.007Z,1019.60
2022-12-26T04:11:47.243Z,1019.76
2022-12-26T04:16:54.469Z,1019.79
2022-12-26T04:22:01.623Z,1019.71
2022-12-26T04:27:08.852Z,1019.81
2022-12-26T04:32:16.030Z,1019.75
2022-12-26T04:37:23.215Z,1019.69
2022-12-26T04:42:30.500Z,1019.80
2022-12-26T04:47:37.776Z,1019.98
2022-12-26T04:52:44.996Z,1020.04
2022-12-26T04:57:52.265Z,1020.19
2022-12-26T05:02:59.721Z,1020.19
2022-12-26T05:08:06.682Z,1020.16
2022-12-26T05:13:13.843Z,1020.24
2022-12-26T05:18:20.959Z,1020.26
2022-12-26T05:23:28.220Z,1020.19
2022-12-26T05:28:35.407Z,1020.26
2022-12-26T05:33:42.674Z,1020.27
2022-12-26T05:38:49.840Z,1020.11
2022-12-26T05:43:57.034Z,1020.30
2022-12-26T05:49:04.303Z,1020.41
2022-12-26T05:54:11.522Z,1020.22
2022-12-26T05:59:18.747Z,1020.27
2022-12-26T06:04:25.968Z,1020.17
2022-12-26T06:09:33.133Z,1020.14
2022-12-26T06:14:40.366Z,1020.01
2022-12-26T06:19:47.554Z,1019.91
2022-12-26T06:24:54.787Z,1019.82
2022-12-26T06:30:02.070Z,1019.74
2022-12-26T06:35:09.259Z,1019.91
2022-12-26T06:40:16.452Z,1019.91
2022-12-26T06:45:23.810Z,1019.83
2022-12-26T06:50:30.976Z,1019.70
2022-12-26T06:55:38.171Z,1019.65
2022-12-26T07:00:45.497Z,1019.85
2022-12-26T07:05:52.586Z,1019.78
2022-12-26T07:10:59.776Z,1019.57
2022-12-26T07:16:07.031Z,1019.54
2022-12-26T07:21:14.162Z,1019.59
2022-12-26T07:26:21.394Z,1019.45
2022-12-26T07:31:28.660Z,1019.42
2022-12-26T07:36:35.872Z,1019.43
2022-12-26T07:41:43.135Z,1019.45
2022-12-26T07:46:50.341Z,1019.53
2022-12-26T07:51:57.532Z,1019.39
2022-12-26T07:57:38.022Z,1019.55
2022-12-26T08:02:12.248Z,1019.55
2022-12-26T08:07:19.199Z,1019.70
2022-12-26T08:12:26.349Z,1019.35
2022-12-26T08:17:33.570Z,1019.36
2022-12-26T08:22:40.744Z,1019.27
2022-12-26T08:27:47.964Z,1019.29
2022-12-26T08:32:55.225Z,1019.43
2022-12-26T08:38:02.380Z,1019.56
2022-12-26T08:43:30.263Z,1019.59
2022-12-26T08:48:16.735Z,1019.55
2022-12-26T08:53:23.877Z,1019.61
2022-12-26T08:58:31.155Z,1019.71
2022-12-26T09:03:38.330Z,1019.69
2022-12-26T09:08:45.513Z,1019.80
2022-12-26T09:13:52.725Z,1019.72
2022-12-26T09:18:59.922Z,1019.92
2022-12-26T09:24:07.090Z,1019.69
2022-12-26T09:29:14.269Z,1019.86
2022-12-26T09:34:21.482Z,1019.73
2022-12-26T09:39:28.711Z,1019.78
2022-12-26T09:44:35.870Z,1019.74
2022-12-26T09:49:43.130Z,1019.92
2022-12-26T09:54:50.351Z,1019.66
2022-12-26T09:59:57.555Z,1019.86
2022-12-26T10:05:04.816Z,1019.81
2022-12-26T10:10:12.050Z,1019.76
2022-12-26T10:15:19.257Z,1019.80
2022-12-26T10:20:26.490Z,1019.80
2022-12-26T10:25:34.122Z,1019.66
2022-12-26T10:30:40.905Z,1019.43
2022-12-26T10:35:48.068Z,1019.57
2022-12-26T10:40:55.304Z,1019.54
2022-12-26T10:46:02.533Z,1019.50
2022-12-26T10:51:09.704Z,1019.62
2022-12-26T10:56:18.482Z,1019.55
2022-12-26T11:01:24.208Z,1019.42
2022-12-26T11:06:31.360Z,1019.61
2022-12-26T11:11:38.503Z,1019.63
2022-12-26T11:16:45.750Z,1019.65
2022-12-26T11:21:53.044Z,1020.00
2022-12-26T11:27:00.209Z,1020.13
2022-12-26T11:32:07.450Z,1020.44
2022-12-26T11:37:14.710Z,1020.45
2022-12-26T11:42:21.948Z,1020.45
2022-12-26T11:47:29.154Z,1020.77
2022-12-26T11:52:36.382Z,1020.96
2022-12-26T11:57:43.539Z,1020.85
2022-12-26T12:02:50.788Z,1020.92
2022-12-26T12:07:58.016Z,1020.84
2022-12-26T12:13:05.139Z,1020.76
2022-12-26T12:18:12.381Z,1020.46
2022-12-26T12:23:19.627Z,1020.43
2022-12-26T12:28:26.887Z,1020.45
2022-12-26T12:33:34.087Z,1020.50
2022-12-26T12:38:41.334Z,1020.63
2022-12-26T12:43:48.489Z,1020.57
2022-12-26T12:48:55.690Z,1020.57
2022-12-26T12:54:02.941Z,1020.61
2022-12-26T12:59:10.066Z,1020.78
2022-12-26T13:04:17.267Z,1020.69
2022-12-26T13:09:24.556Z,1020.77
2022-12-26T13:14:31.720Z,1020.69
2022-12-26T13:19:38.928Z,1020.71
2022-12-26T13:24:46.180Z,1020.73
2022-12-26T13:29:53.421Z,1020.82
2022-12-26T13:35:00.637Z,1020.78
2022-12-26T13:40:07.923Z,1020.88
2022-12-26T13:45:15.084Z,1020.94
2022-12-26T13:50:22.254Z,1021.16
2022-12-26T13:55:29.585Z,1021.32
2022-12-26T14:00:36.784Z,1021.32
2022-12-26T14:05:43.949Z,1021.27
2022-12-26T14:10:51.215Z,1021.21
2022-12-26T14:15:58.403Z,1021.02
2022-12-26T14:21:05.620Z,1021.14
2022-12-26T14:26:12.808Z,1021.28
2022-12-26T14:31:19.956Z,1021.17
2022-12-26T14:36:27.210Z,1021.25
2022-12-26T14:41:34.432Z,1021.34
2022-12-26T14:46:41.633Z,1021.54
2022-12-26T14:51:48.819Z,1021.58
2022-12-26T14:56:56.059Z,1021.34
2022-12-26T15:02:03.458Z,1021.39
2022-12-26T15:07:14.028Z,1021.30
2022-12-26T15:12:17.656Z,1021.21
2022-12-26T15:17:24.909Z,1021.40
2022-12-26T15:22:32.152Z,1021.26
2022-12-26T15:27:39.465Z,1021.17
2022-12-26T15:32:46.714Z,1021.14
2022-12-26T15:37:53.913Z,1021.09
2022-12-26T15:43:01.155Z,1021.17
2022-12-26T15:48:08.323Z,1021.14
2022-12-26T15:53:15.556Z,1021.25
2022-12-26T15:58:22.768Z,1021.46
2022-12-26T16:03:30.072Z,1021.50
2022-12-26T16:08:37.191Z,1021.64
2022-12-26T16:13:44.479Z,1021.77
2022-12-26T16:18:51.621Z,1021.84
2022-12-26T16:23:58.911Z,1022.32
2022-12-26T16:29:06.169Z,1022.21
2022-12-26T16:34:13.341Z,1022.46
2022-12-26T16:39:20.541Z,1022.54
2022-12-26T16:44:30.396Z,1022.57
2022-12-26T16:49:34.927Z,1022.63
2022-12-26T16:54:42.144Z,1022.54
2022-12-26T16:59:49.388Z,1022.64
2022-12-26T17:04:58.552Z,1022.60
2022-12-26T17:10:07.001Z,1022.59
2022-12-26T17:15:11.110Z,1022.52
2022-12-26T17:20:18.343Z,1022.15
2022-12-26T17:25:25.551Z,1021.88
2022-12-26T17:30:32.895Z,1021.74
2022-12-26T17:36:25.359Z,1021.64
2022-12-26T17:40:47.497Z,1021.65
2022-12-26T17:45:54.731Z,1022.14
2022-12-26T17:51:01.917Z,1022.37
2022-12-26T17:56:09.145Z,1022.60
2022-12-26T18:01:21.031Z,1022.55
2022-12-26T18:06:23.823Z,1022.53
2022-12-26T18:11:31.039Z,1022.47
2022-12-26T18:16:38.617Z,1022.31
2022-12-26T18:21:45.899Z,1022.30
2022-12-26T18:26:53.111Z,1022.53
2022-12-26T18:32:00.400Z,1022.73
2022-12-26T18:37:07.493Z,1022.66
2022-12-26T18:42:15.999Z,1022.49
2022-12-26T18:47:23.421Z,1022.38
2022-12-26T18:52:30.644Z,1022.34
2022-12-26T18:57:37.851Z,1022.61
2022-12-26T19:02:45.211Z,1022.50
2022-12-26T19:07:52.324Z,1022.27
2022-12-26T19:13:05.032Z,1022.16
2022-12-26T19:18:07.289Z,1022.58
2022-12-26T19:23:14.544Z,1021.86
2022-12-26T19:28:21.754Z,1022.41
2022-12-26T19:33:29.313Z,1022.70
2022-12-26T19:38:36.886Z,1022.63
2022-12-26T19:43:44.502Z,1022.70
2022-12-26T19:48:51.865Z,1022.63
2022-12-26T19:53:59.320Z,1022.75
2022-12-26T19:59:06.668Z,1022.91
2022-12-26T20:04:13.850Z,1023.10
2022-12-26T20:09:21.348Z,1022.63
2022-12-26T20:14:28.744Z,1022.72
2022-12-26T20:19:36.091Z,1022.66
2022-12-26T20:24:43.471Z,1022.70
2022-12-26T20:29:50.936Z,1022.63
2022-12-26T20:34:58.239Z,1022.42
2022-12-26T20:40:05.708Z,1022.82
2022-12-26T20:45:13.423Z,1022.88
2022-12-26T20:50:21.065Z,1022.86
2022-12-26T20:55:28.644Z,1023.00
2022-12-26T21:00:35.980Z,1022.99
2022-12-26T21:05:43.492Z,1023.24
2022-12-26T21:10:51.021Z,1023.42
2022-12-26T21:15:58.232Z,1023.43
2022-12-26T21:21:05.489Z,1023.62
2022-12-26T21:26:12.686Z,1023.52
2022-12-26T21:31:20.012Z,1023.67
2022-12-26T21:36:27.145Z,1023.33
2022-12-26T21:41:34.274Z,1023.26
2022-12-26T21:46:41.572Z,1023.28
2022-12-26T21:51:48.754Z,1023.72
2022-12-26T21:56:55.978Z,1023.63
2022-12-26T22:02:03.385Z,1024.09
2022-12-26T22:07:10.457Z,1024.20
2022-12-26T22:12:17.648Z,1024.37
2022-12-26T22:17:24.872Z,1024.56
2022-12-26T22:22:32.115Z,1024.74
2022-12-26T22:27:39.245Z,1024.89
2022-12-26T22:32:46.439Z,1024.95
2022-12-26T22:37:53.670Z,1025.03
2022-12-26T22:43:00.873Z,1025.16
2022-12-26T22:48:10.653Z,1025.14
2022-12-26T22:53:18.398Z,1024.98
2022-12-26T22:58:25.590Z,1025.12
2022-12-26T23:03:32.902Z,1025.11
2022-12-26T23:08:40.101Z,1025.20
2022-12-26T23:13:47.269Z,1025.21
2022-12-26T23:18:54.440Z,1025.33
2022-12-26T23:24:01.607Z,1025.34
2022-12-26T23:29:08.816Z,1025.33
2022-12-26T23:34:16.017Z,1025.35
2022-12-26T23:39:23.223Z,1025.31
2022-12-26T23:44:30.391Z,1025.37
2022-12-26T23:49:37.625Z,1025.54
2022-12-26T23:54:44.952Z,1025.62
2022-12-26T23:59:52.174Z,1025.59
